sensor_id;sensor_type;location;lat;lon;timestamp;P1;durP1;ratioP1;P2;durP2;ratioP2
74904;SDS011;63465;50.862;6.220;2023-09-30T00:02:19;20.63;;;10.40;;
74904;SDS011;63465;50.862;6.220;2023-09-30T00:04:45;16.77;;;9.47;;
74904;SDS011;63465;50.862;6.220;2023-09-30T00:07:10;17.60;;;9.87;;
74904;SDS011;63465;50.862;6.220;2023-09-30T00:09:35;24.17;;;10.87;;
74904;SDS011;63465;50.862;6.220;2023-09-30T00:12:01;18.50;;;10.47;;
74904;SDS011;63465;50.862;6.220;2023-09-30T00:14:26;20.70;;;9.90;;
74904;SDS011;63465;50.862;6.220;2023-09-30T00:16:52;19.03;;;9.47;;
74904;SDS011;63465;50.862;6.220;2023-09-30T00:19:17;20.57;;;10.57;;
74904;SDS011;63465;50.862;6.220;2023-09-30T00:21:42;13.43;;;8.70;;
74904;SDS011;63465;50.862;6.220;2023-09-30T00:24:08;18.33;;;10.20;;
74904;SDS011;63465;50.862;6.220;2023-09-30T00:26:34;15.90;;;8.20;;
74904;SDS011;63465;50.862;6.220;2023-09-30T00:28:59;14.93;;;8.87;;
74904;SDS011;63465;50.862;6.220;2023-09-30T00:31:24;15.17;;;8.90;;
74904;SDS011;63465;50.862;6.220;2023-09-30T00:33:50;15.10;;;9.13;;
74904;SDS011;63465;50.862;6.220;2023-09-30T00:36:15;25.07;;;11.13;;
74904;SDS011;63465;50.862;6.220;2023-09-30T00:38:41;19.80;;;9.53;;
74904;SDS011;63465;50.862;6.220;2023-09-30T00:41:06;24.87;;;11.67;;
74904;SDS011;63465;50.862;6.220;2023-09-30T00:43:32;24.80;;;11.13;;
74904;SDS011;63465;50.862;6.220;2023-09-30T00:46:43;20.57;;;10.87;;
74904;SDS011;63465;50.862;6.220;2023-09-30T00:48:54;23.63;;;11.33;;
74904;SDS011;63465;50.862;6.220;2023-09-30T00:51:22;30.90;;;10.67;;
74904;SDS011;63465;50.862;6.220;2023-09-30T00:53:48;23.37;;;10.87;;
74904;SDS011;63465;50.862;6.220;2023-09-30T00:56:15;21.20;;;10.67;;
74904;SDS011;63465;50.862;6.220;2023-09-30T00:58:42;22.87;;;10.53;;
74904;SDS011;63465;50.862;6.220;2023-09-30T01:01:07;20.20;;;10.20;;
74904;SDS011;63465;50.862;6.220;2023-09-30T01:03:34;22.73;;;10.67;;
74904;SDS011;63465;50.862;6.220;2023-09-30T01:05:59;26.43;;;10.90;;
74904;SDS011;63465;50.862;6.220;2023-09-30T01:08:25;20.63;;;9.07;;
74904;SDS011;63465;50.862;6.220;2023-09-30T01:10:52;24.70;;;10.80;;
74904;SDS011;63465;50.862;6.220;2023-09-30T01:13:18;25.23;;;10.47;;
74904;SDS011;63465;50.862;6.220;2023-09-30T01:15:43;25.53;;;11.90;;
74904;SDS011;63465;50.862;6.220;2023-09-30T01:18:08;26.23;;;12.80;;
74904;SDS011;63465;50.862;6.220;2023-09-30T01:20:34;24.93;;;12.33;;
74904;SDS011;63465;50.862;6.220;2023-09-30T01:22:59;23.87;;;10.80;;
74904;SDS011;63465;50.862;6.220;2023-09-30T01:25:26;33.30;;;12.53;;
74904;SDS011;63465;50.862;6.220;2023-09-30T01:27:52;22.40;;;12.33;;
74904;SDS011;63465;50.862;6.220;2023-09-30T01:30:18;32.27;;;13.00;;
74904;SDS011;63465;50.862;6.220;2023-09-30T01:32:44;23.03;;;12.27;;
74904;SDS011;63465;50.862;6.220;2023-09-30T01:35:09;24.27;;;12.30;;
74904;SDS011;63465;50.862;6.220;2023-09-30T01:37:35;23.37;;;12.80;;
74904;SDS011;63465;50.862;6.220;2023-09-30T01:40:01;25.50;;;12.50;;
74904;SDS011;63465;50.862;6.220;2023-09-30T01:42:28;22.63;;;12.50;;
74904;SDS011;63465;50.862;6.220;2023-09-30T01:44:54;31.13;;;13.50;;
74904;SDS011;63465;50.862;6.220;2023-09-30T01:47:19;33.23;;;15.80;;
74904;SDS011;63465;50.862;6.220;2023-09-30T01:49:44;25.20;;;13.80;;
74904;SDS011;63465;50.862;6.220;2023-09-30T01:52:10;33.27;;;14.17;;
74904;SDS011;63465;50.862;6.220;2023-09-30T01:54:35;29.13;;;15.23;;
74904;SDS011;63465;50.862;6.220;2023-09-30T01:57:01;29.67;;;14.60;;
74904;SDS011;63465;50.862;6.220;2023-09-30T01:59:28;24.27;;;13.00;;
74904;SDS011;63465;50.862;6.220;2023-09-30T02:01:53;29.60;;;14.67;;
74904;SDS011;63465;50.862;6.220;2023-09-30T02:04:19;31.60;;;15.00;;
74904;SDS011;63465;50.862;6.220;2023-09-30T02:06:44;32.80;;;14.37;;
74904;SDS011;63465;50.862;6.220;2023-09-30T02:09:09;29.83;;;14.40;;
74904;SDS011;63465;50.862;6.220;2023-09-30T02:11:35;28.33;;;13.80;;
74904;SDS011;63465;50.862;6.220;2023-09-30T02:14:01;25.00;;;14.03;;
74904;SDS011;63465;50.862;6.220;2023-09-30T02:16:27;28.50;;;14.33;;
74904;SDS011;63465;50.862;6.220;2023-09-30T02:18:53;31.73;;;14.17;;
74904;SDS011;63465;50.862;6.220;2023-09-30T02:21:18;36.13;;;15.23;;
74904;SDS011;63465;50.862;6.220;2023-09-30T02:23:44;32.77;;;14.97;;
74904;SDS011;63465;50.862;6.220;2023-09-30T02:26:13;31.30;;;13.80;;
74904;SDS011;63465;50.862;6.220;2023-09-30T02:28:42;29.47;;;13.60;;
74904;SDS011;63465;50.862;6.220;2023-09-30T02:31:07;31.00;;;15.60;;
74904;SDS011;63465;50.862;6.220;2023-09-30T02:33:33;28.43;;;14.70;;
74904;SDS011;63465;50.862;6.220;2023-09-30T02:36:00;27.33;;;14.27;;
74904;SDS011;63465;50.862;6.220;2023-09-30T02:38:26;30.93;;;14.57;;
74904;SDS011;63465;50.862;6.220;2023-09-30T02:40:53;28.33;;;14.60;;
74904;SDS011;63465;50.862;6.220;2023-09-30T02:43:19;32.03;;;14.20;;
74904;SDS011;63465;50.862;6.220;2023-09-30T02:45:45;29.30;;;14.67;;
74904;SDS011;63465;50.862;6.220;2023-09-30T02:48:11;30.80;;;15.27;;
74904;SDS011;63465;50.862;6.220;2023-09-30T02:50:36;27.77;;;13.83;;
74904;SDS011;63465;50.862;6.220;2023-09-30T02:53:02;29.90;;;15.27;;
74904;SDS011;63465;50.862;6.220;2023-09-30T02:55:27;25.53;;;14.30;;
74904;SDS011;63465;50.862;6.220;2023-09-30T02:57:52;34.20;;;14.80;;
74904;SDS011;63465;50.862;6.220;2023-09-30T03:00:18;31.27;;;14.90;;
74904;SDS011;63465;50.862;6.220;2023-09-30T03:02:50;31.10;;;15.50;;
74904;SDS011;63465;50.862;6.220;2023-09-30T03:05:16;34.33;;;15.50;;
74904;SDS011;63465;50.862;6.220;2023-09-30T03:07:42;38.30;;;14.47;;
74904;SDS011;63465;50.862;6.220;2023-09-30T03:10:08;38.50;;;14.70;;
74904;SDS011;63465;50.862;6.220;2023-09-30T03:12:34;31.43;;;14.37;;
74904;SDS011;63465;50.862;6.220;2023-09-30T03:15:00;43.03;;;17.60;;
74904;SDS011;63465;50.862;6.220;2023-09-30T03:17:30;33.27;;;14.97;;
74904;SDS011;63465;50.862;6.220;2023-09-30T03:19:56;36.87;;;15.83;;
74904;SDS011;63465;50.862;6.220;2023-09-30T03:22:22;30.43;;;15.03;;
74904;SDS011;63465;50.862;6.220;2023-09-30T03:24:48;31.47;;;15.47;;
74904;SDS011;63465;50.862;6.220;2023-09-30T03:27:13;31.37;;;15.40;;
74904;SDS011;63465;50.862;6.220;2023-09-30T03:29:40;43.90;;;16.37;;
74904;SDS011;63465;50.862;6.220;2023-09-30T03:32:06;42.33;;;17.10;;
74904;SDS011;63465;50.862;6.220;2023-09-30T03:34:31;37.00;;;16.20;;
74904;SDS011;63465;50.862;6.220;2023-09-30T03:36:57;45.07;;;16.73;;
74904;SDS011;63465;50.862;6.220;2023-09-30T03:39:24;33.80;;;14.60;;
74904;SDS011;63465;50.862;6.220;2023-09-30T03:41:53;38.60;;;15.93;;
74904;SDS011;63465;50.862;6.220;2023-09-30T03:44:21;39.80;;;16.17;;
74904;SDS011;63465;50.862;6.220;2023-09-30T03:46:48;40.33;;;16.30;;
74904;SDS011;63465;50.862;6.220;2023-09-30T03:49:13;39.10;;;16.60;;
74904;SDS011;63465;50.862;6.220;2023-09-30T03:51:39;42.63;;;17.20;;
74904;SDS011;63465;50.862;6.220;2023-09-30T03:54:04;35.53;;;16.30;;
74904;SDS011;63465;50.862;6.220;2023-09-30T03:56:31;39.90;;;16.10;;
74904;SDS011;63465;50.862;6.220;2023-09-30T03:58:57;41.50;;;16.83;;
74904;SDS011;63465;50.862;6.220;2023-09-30T04:01:22;40.90;;;17.53;;
74904;SDS011;63465;50.862;6.220;2023-09-30T04:03:48;36.77;;;15.23;;
74904;SDS011;63465;50.862;6.220;2023-09-30T04:06:14;33.63;;;15.73;;
74904;SDS011;63465;50.862;6.220;2023-09-30T04:08:39;35.77;;;15.53;;
74904;SDS011;63465;50.862;6.220;2023-09-30T04:11:05;32.43;;;15.43;;
74904;SDS011;63465;50.862;6.220;2023-09-30T04:13:31;40.53;;;17.90;;
74904;SDS011;63465;50.862;6.220;2023-09-30T04:15:56;37.83;;;15.77;;
74904;SDS011;63465;50.862;6.220;2023-09-30T04:18:23;41.70;;;16.53;;
74904;SDS011;63465;50.862;6.220;2023-09-30T04:20:51;39.23;;;15.30;;
74904;SDS011;63465;50.862;6.220;2023-09-30T04:23:16;35.67;;;15.00;;
74904;SDS011;63465;50.862;6.220;2023-09-30T04:25:42;44.50;;;16.03;;
74904;SDS011;63465;50.862;6.220;2023-09-30T04:28:08;35.13;;;15.07;;
74904;SDS011;63465;50.862;6.220;2023-09-30T04:30:33;40.43;;;15.67;;
74904;SDS011;63465;50.862;6.220;2023-09-30T04:32:59;41.20;;;16.43;;
74904;SDS011;63465;50.862;6.220;2023-09-30T04:35:25;32.97;;;14.37;;
74904;SDS011;63465;50.862;6.220;2023-09-30T04:37:51;39.57;;;17.00;;
74904;SDS011;63465;50.862;6.220;2023-09-30T04:40:17;30.33;;;13.83;;
74904;SDS011;63465;50.862;6.220;2023-09-30T04:42:46;35.20;;;14.33;;
74904;SDS011;63465;50.862;6.220;2023-09-30T04:45:14;32.20;;;15.33;;
74904;SDS011;63465;50.862;6.220;2023-09-30T04:47:45;27.67;;;13.33;;
74904;SDS011;63465;50.862;6.220;2023-09-30T04:50:10;35.10;;;13.30;;
74904;SDS011;63465;50.862;6.220;2023-09-30T04:52:38;29.83;;;13.97;;
74904;SDS011;63465;50.862;6.220;2023-09-30T04:55:05;36.43;;;14.70;;
74904;SDS011;63465;50.862;6.220;2023-09-30T04:57:31;29.93;;;13.13;;
74904;SDS011;63465;50.862;6.220;2023-09-30T04:59:56;34.30;;;13.07;;
74904;SDS011;63465;50.862;6.220;2023-09-30T05:02:22;32.87;;;13.50;;
74904;SDS011;63465;50.862;6.220;2023-09-30T05:04:49;27.20;;;12.73;;
74904;SDS011;63465;50.862;6.220;2023-09-30T05:07:14;25.67;;;12.67;;
74904;SDS011;63465;50.862;6.220;2023-09-30T05:09:39;25.33;;;11.90;;
74904;SDS011;63465;50.862;6.220;2023-09-30T05:12:05;25.67;;;12.30;;
74904;SDS011;63465;50.862;6.220;2023-09-30T05:14:31;34.07;;;13.80;;
74904;SDS011;63465;50.862;6.220;2023-09-30T05:16:56;30.27;;;13.30;;
74904;SDS011;63465;50.862;6.220;2023-09-30T05:19:22;29.20;;;12.70;;
74904;SDS011;63465;50.862;6.220;2023-09-30T05:21:47;28.20;;;12.80;;
74904;SDS011;63465;50.862;6.220;2023-09-30T05:24:13;25.00;;;13.00;;
74904;SDS011;63465;50.862;6.220;2023-09-30T05:26:39;28.27;;;11.93;;
74904;SDS011;63465;50.862;6.220;2023-09-30T05:29:04;28.40;;;13.20;;
74904;SDS011;63465;50.862;6.220;2023-09-30T05:31:30;26.90;;;11.93;;
74904;SDS011;63465;50.862;6.220;2023-09-30T05:33:55;29.07;;;13.20;;
74904;SDS011;63465;50.862;6.220;2023-09-30T05:36:21;27.07;;;12.00;;
74904;SDS011;63465;50.862;6.220;2023-09-30T05:38:47;23.83;;;11.90;;
74904;SDS011;63465;50.862;6.220;2023-09-30T05:41:15;26.77;;;12.20;;
74904;SDS011;63465;50.862;6.220;2023-09-30T05:43:40;21.83;;;11.30;;
74904;SDS011;63465;50.862;6.220;2023-09-30T05:46:08;25.87;;;11.37;;
74904;SDS011;63465;50.862;6.220;2023-09-30T05:48:34;26.43;;;11.07;;
74904;SDS011;63465;50.862;6.220;2023-09-30T05:50:59;23.80;;;10.70;;
74904;SDS011;63465;50.862;6.220;2023-09-30T05:53:24;23.57;;;11.00;;
74904;SDS011;63465;50.862;6.220;2023-09-30T05:55:50;22.40;;;11.47;;
74904;SDS011;63465;50.862;6.220;2023-09-30T05:58:15;27.00;;;11.00;;
74904;SDS011;63465;50.862;6.220;2023-09-30T06:00:41;23.60;;;11.10;;
74904;SDS011;63465;50.862;6.220;2023-09-30T06:03:07;24.00;;;11.87;;
74904;SDS011;63465;50.862;6.220;2023-09-30T06:05:33;22.10;;;10.50;;
74904;SDS011;63465;50.862;6.220;2023-09-30T06:07:59;22.33;;;11.70;;
74904;SDS011;63465;50.862;6.220;2023-09-30T06:10:27;20.63;;;9.57;;
74904;SDS011;63465;50.862;6.220;2023-09-30T06:12:53;27.27;;;10.93;;
74904;SDS011;63465;50.862;6.220;2023-09-30T06:15:20;22.10;;;10.30;;
74904;SDS011;63465;50.862;6.220;2023-09-30T06:17:47;18.27;;;9.70;;
74904;SDS011;63465;50.862;6.220;2023-09-30T06:20:16;16.80;;;9.87;;
74904;SDS011;63465;50.862;6.220;2023-09-30T06:22:43;16.93;;;9.67;;
74904;SDS011;63465;50.862;6.220;2023-09-30T06:25:14;16.50;;;8.53;;
74904;SDS011;63465;50.862;6.220;2023-09-30T06:27:41;18.67;;;9.23;;
74904;SDS011;63465;50.862;6.220;2023-09-30T06:30:07;16.63;;;8.67;;
74904;SDS011;63465;50.862;6.220;2023-09-30T06:32:34;14.70;;;9.47;;
74904;SDS011;63465;50.862;6.220;2023-09-30T06:35:00;26.13;;;10.07;;
74904;SDS011;63465;50.862;6.220;2023-09-30T06:37:27;17.40;;;9.40;;
74904;SDS011;63465;50.862;6.220;2023-09-30T06:39:54;16.20;;;8.00;;
74904;SDS011;63465;50.862;6.220;2023-09-30T06:42:20;16.03;;;8.67;;
74904;SDS011;63465;50.862;6.220;2023-09-30T06:44:46;13.10;;;8.17;;
74904;SDS011;63465;50.862;6.220;2023-09-30T06:47:11;18.83;;;10.73;;
74904;SDS011;63465;50.862;6.220;2023-09-30T06:49:38;19.60;;;8.60;;
74904;SDS011;63465;50.862;6.220;2023-09-30T06:52:04;17.03;;;8.40;;
74904;SDS011;63465;50.862;6.220;2023-09-30T06:54:33;17.90;;;7.57;;
74904;SDS011;63465;50.862;6.220;2023-09-30T06:56:58;13.17;;;7.13;;
74904;SDS011;63465;50.862;6.220;2023-09-30T06:59:23;17.30;;;7.90;;
74904;SDS011;63465;50.862;6.220;2023-09-30T07:01:50;13.37;;;7.60;;
74904;SDS011;63465;50.862;6.220;2023-09-30T07:04:15;14.70;;;8.10;;
74904;SDS011;63465;50.862;6.220;2023-09-30T07:06:41;12.90;;;7.40;;
74904;SDS011;63465;50.862;6.220;2023-09-30T07:09:06;10.60;;;7.00;;
74904;SDS011;63465;50.862;6.220;2023-09-30T07:11:31;12.20;;;6.87;;
74904;SDS011;63465;50.862;6.220;2023-09-30T07:13:59;11.20;;;5.70;;
74904;SDS011;63465;50.862;6.220;2023-09-30T07:16:25;8.90;;;6.07;;
74904;SDS011;63465;50.862;6.220;2023-09-30T07:18:50;9.23;;;7.23;;
74904;SDS011;63465;50.862;6.220;2023-09-30T07:21:16;9.20;;;6.23;;
74904;SDS011;63465;50.862;6.220;2023-09-30T07:23:41;9.73;;;5.67;;
74904;SDS011;63465;50.862;6.220;2023-09-30T07:26:07;10.37;;;5.33;;
74904;SDS011;63465;50.862;6.220;2023-09-30T07:28:33;7.80;;;4.67;;
74904;SDS011;63465;50.862;6.220;2023-09-30T07:30:58;6.17;;;4.47;;
74904;SDS011;63465;50.862;6.220;2023-09-30T07:33:24;9.67;;;4.70;;
74904;SDS011;63465;50.862;6.220;2023-09-30T07:35:49;12.00;;;6.87;;
74904;SDS011;63465;50.862;6.220;2023-09-30T07:38:15;9.20;;;5.03;;
74904;SDS011;63465;50.862;6.220;2023-09-30T07:40:40;7.53;;;4.93;;
74904;SDS011;63465;50.862;6.220;2023-09-30T07:43:06;7.60;;;4.83;;
74904;SDS011;63465;50.862;6.220;2023-09-30T07:45:32;6.70;;;4.63;;
74904;SDS011;63465;50.862;6.220;2023-09-30T07:47:57;5.77;;;4.53;;
74904;SDS011;63465;50.862;6.220;2023-09-30T07:50:23;5.70;;;4.50;;
74904;SDS011;63465;50.862;6.220;2023-09-30T07:52:49;7.40;;;5.20;;
74904;SDS011;63465;50.862;6.220;2023-09-30T07:55:15;9.50;;;4.70;;
74904;SDS011;63465;50.862;6.220;2023-09-30T07:57:40;8.30;;;4.23;;
74904;SDS011;63465;50.862;6.220;2023-09-30T08:00:11;5.80;;;3.97;;
74904;SDS011;63465;50.862;6.220;2023-09-30T08:02:40;7.83;;;3.93;;
74904;SDS011;63465;50.862;6.220;2023-09-30T08:05:06;9.63;;;4.40;;
74904;SDS011;63465;50.862;6.220;2023-09-30T08:07:32;6.70;;;3.97;;
74904;SDS011;63465;50.862;6.220;2023-09-30T08:09:58;11.03;;;3.30;;
74904;SDS011;63465;50.862;6.220;2023-09-30T08:12:24;5.07;;;3.10;;
74904;SDS011;63465;50.862;6.220;2023-09-30T08:14:49;6.10;;;3.77;;
74904;SDS011;63465;50.862;6.220;2023-09-30T08:17:16;4.97;;;3.87;;
74904;SDS011;63465;50.862;6.220;2023-09-30T08:19:42;4.50;;;3.83;;
74904;SDS011;63465;50.862;6.220;2023-09-30T08:22:09;4.30;;;3.10;;
74904;SDS011;63465;50.862;6.220;2023-09-30T08:24:34;7.10;;;3.80;;
74904;SDS011;63465;50.862;6.220;2023-09-30T08:27:00;6.67;;;3.93;;
74904;SDS011;63465;50.862;6.220;2023-09-30T08:29:26;6.93;;;3.30;;
74904;SDS011;63465;50.862;6.220;2023-09-30T08:31:51;6.00;;;4.27;;
74904;SDS011;63465;50.862;6.220;2023-09-30T08:34:16;6.03;;;3.40;;
74904;SDS011;63465;50.862;6.220;2023-09-30T08:36:42;13.67;;;3.47;;
74904;SDS011;63465;50.862;6.220;2023-09-30T08:39:08;6.53;;;3.43;;
74904;SDS011;63465;50.862;6.220;2023-09-30T08:41:35;3.60;;;3.10;;
74904;SDS011;63465;50.862;6.220;2023-09-30T08:44:01;4.70;;;3.30;;
74904;SDS011;63465;50.862;6.220;2023-09-30T08:46:30;5.30;;;3.70;;
74904;SDS011;63465;50.862;6.220;2023-09-30T08:48:57;5.73;;;3.70;;
74904;SDS011;63465;50.862;6.220;2023-09-30T08:51:24;7.00;;;2.40;;
74904;SDS011;63465;50.862;6.220;2023-09-30T08:53:50;8.47;;;3.57;;
74904;SDS011;63465;50.862;6.220;2023-09-30T08:56:19;12.70;;;6.07;;
74904;SDS011;63465;50.862;6.220;2023-09-30T08:58:49;4.77;;;3.10;;
74904;SDS011;63465;50.862;6.220;2023-09-30T09:01:15;6.97;;;3.90;;
74904;SDS011;63465;50.862;6.220;2023-09-30T09:03:41;8.47;;;4.77;;
74904;SDS011;63465;50.862;6.220;2023-09-30T09:06:06;8.00;;;3.37;;
74904;SDS011;63465;50.862;6.220;2023-09-30T09:08:32;7.60;;;3.23;;
74904;SDS011;63465;50.862;6.220;2023-09-30T09:10:57;7.73;;;3.17;;
74904;SDS011;63465;50.862;6.220;2023-09-30T09:13:28;9.73;;;3.10;;
74904;SDS011;63465;50.862;6.220;2023-09-30T09:16:09;3.10;;;2.73;;
74904;SDS011;63465;50.862;6.220;2023-09-30T09:18:35;5.60;;;2.80;;
74904;SDS011;63465;50.862;6.220;2023-09-30T09:26:28;4.67;;;2.60;;
74904;SDS011;63465;50.862;6.220;2023-09-30T09:29:02;5.13;;;2.20;;
74904;SDS011;63465;50.862;6.220;2023-09-30T09:31:30;10.57;;;2.50;;
74904;SDS011;63465;50.862;6.220;2023-09-30T09:33:59;4.77;;;2.80;;
74904;SDS011;63465;50.862;6.220;2023-09-30T09:36:41;4.30;;;2.60;;
74904;SDS011;63465;50.862;6.220;2023-09-30T09:39:08;4.50;;;2.43;;
74904;SDS011;63465;50.862;6.220;2023-09-30T09:41:48;10.63;;;3.37;;
74904;SDS011;63465;50.862;6.220;2023-09-30T09:44:19;4.50;;;2.60;;
74904;SDS011;63465;50.862;6.220;2023-09-30T09:46:47;5.07;;;2.27;;
74904;SDS011;63465;50.862;6.220;2023-09-30T09:49:14;6.30;;;2.50;;
74904;SDS011;63465;50.862;6.220;2023-09-30T09:51:48;4.97;;;2.60;;
74904;SDS011;63465;50.862;6.220;2023-09-30T09:54:14;5.27;;;2.47;;
74904;SDS011;63465;50.862;6.220;2023-09-30T09:56:41;3.73;;;2.53;;
74904;SDS011;63465;50.862;6.220;2023-09-30T09:59:09;3.37;;;2.27;;
74904;SDS011;63465;50.862;6.220;2023-09-30T10:01:37;8.70;;;2.20;;
74904;SDS011;63465;50.862;6.220;2023-09-30T10:04:05;3.87;;;2.30;;
74904;SDS011;63465;50.862;6.220;2023-09-30T10:06:31;7.40;;;2.70;;
74904;SDS011;63465;50.862;6.220;2023-09-30T10:09:03;4.50;;;2.70;;
74904;SDS011;63465;50.862;6.220;2023-09-30T10:11:33;5.47;;;2.27;;
74904;SDS011;63465;50.862;6.220;2023-09-30T10:14:00;3.37;;;2.70;;
74904;SDS011;63465;50.862;6.220;2023-09-30T10:21:36;4.00;;;3.03;;
74904;SDS011;63465;50.862;6.220;2023-09-30T10:27:35;5.90;;;2.87;;
74904;SDS011;63465;50.862;6.220;2023-09-30T10:29:48;9.43;;;3.93;;
74904;SDS011;63465;50.862;6.220;2023-09-30T10:32:18;6.23;;;3.47;;
74904;SDS011;63465;50.862;6.220;2023-09-30T10:34:49;4.63;;;2.70;;
74904;SDS011;63465;50.862;6.220;2023-09-30T10:37:20;6.27;;;3.47;;
74904;SDS011;63465;50.862;6.220;2023-09-30T10:39:53;3.50;;;2.90;;
74904;SDS011;63465;50.862;6.220;2023-09-30T10:42:43;5.47;;;2.60;;
74904;SDS011;63465;50.862;6.220;2023-09-30T10:50:57;6.70;;;3.27;;
74904;SDS011;63465;50.862;6.220;2023-09-30T10:53:55;9.47;;;4.53;;
74904;SDS011;63465;50.862;6.220;2023-09-30T10:56:32;5.53;;;4.03;;
74904;SDS011;63465;50.862;6.220;2023-09-30T10:58:58;5.90;;;3.40;;
74904;SDS011;63465;50.862;6.220;2023-09-30T11:01:24;4.17;;;2.50;;
74904;SDS011;63465;50.862;6.220;2023-09-30T11:03:50;10.73;;;3.73;;
74904;SDS011;63465;50.862;6.220;2023-09-30T11:06:22;5.67;;;3.23;;
74904;SDS011;63465;50.862;6.220;2023-09-30T11:08:52;5.97;;;3.10;;
74904;SDS011;63465;50.862;6.220;2023-09-30T11:11:19;4.73;;;3.30;;
74904;SDS011;63465;50.862;6.220;2023-09-30T11:13:56;5.93;;;3.20;;
74904;SDS011;63465;50.862;6.220;2023-09-30T11:16:21;5.13;;;3.23;;
74904;SDS011;63465;50.862;6.220;2023-09-30T11:18:52;8.17;;;3.60;;
74904;SDS011;63465;50.862;6.220;2023-09-30T11:21:18;10.10;;;3.80;;
74904;SDS011;63465;50.862;6.220;2023-09-30T11:23:43;7.33;;;3.33;;
74904;SDS011;63465;50.862;6.220;2023-09-30T11:26:09;4.10;;;3.30;;
74904;SDS011;63465;50.862;6.220;2023-09-30T11:28:38;6.57;;;3.30;;
74904;SDS011;63465;50.862;6.220;2023-09-30T11:31:07;7.70;;;3.50;;
74904;SDS011;63465;50.862;6.220;2023-09-30T11:33:46;5.00;;;3.03;;
74904;SDS011;63465;50.862;6.220;2023-09-30T11:36:14;6.77;;;3.50;;
74904;SDS011;63465;50.862;6.220;2023-09-30T11:38:43;5.90;;;3.30;;
74904;SDS011;63465;50.862;6.220;2023-09-30T11:41:09;7.50;;;3.10;;
74904;SDS011;63465;50.862;6.220;2023-09-30T11:43:35;5.77;;;3.17;;
74904;SDS011;63465;50.862;6.220;2023-09-30T11:46:11;6.17;;;3.43;;
74904;SDS011;63465;50.862;6.220;2023-09-30T11:48:39;4.73;;;2.67;;
74904;SDS011;63465;50.862;6.220;2023-09-30T11:51:21;7.27;;;3.00;;
74904;SDS011;63465;50.862;6.220;2023-09-30T11:53:49;6.90;;;3.23;;
74904;SDS011;63465;50.862;6.220;2023-09-30T11:56:15;6.93;;;3.37;;
74904;SDS011;63465;50.862;6.220;2023-09-30T11:58:40;9.37;;;3.77;;
74904;SDS011;63465;50.862;6.220;2023-09-30T12:01:06;5.23;;;3.47;;
74904;SDS011;63465;50.862;6.220;2023-09-30T12:03:31;6.47;;;3.70;;
74904;SDS011;63465;50.862;6.220;2023-09-30T12:06:01;6.83;;;3.50;;
74904;SDS011;63465;50.862;6.220;2023-09-30T12:08:27;6.53;;;3.50;;
74904;SDS011;63465;50.862;6.220;2023-09-30T12:10:54;5.93;;;3.20;;
74904;SDS011;63465;50.862;6.220;2023-09-30T12:13:20;5.70;;;3.90;;
74904;SDS011;63465;50.862;6.220;2023-09-30T12:15:45;6.23;;;3.57;;
74904;SDS011;63465;50.862;6.220;2023-09-30T12:18:11;6.20;;;3.90;;
74904;SDS011;63465;50.862;6.220;2023-09-30T12:20:38;7.40;;;3.50;;
74904;SDS011;63465;50.862;6.220;2023-09-30T12:23:06;9.83;;;3.93;;
74904;SDS011;63465;50.862;6.220;2023-09-30T12:25:31;5.37;;;3.90;;
74904;SDS011;63465;50.862;6.220;2023-09-30T12:27:58;7.70;;;4.00;;
74904;SDS011;63465;50.862;6.220;2023-09-30T12:30:23;8.53;;;3.93;;
74904;SDS011;63465;50.862;6.220;2023-09-30T12:32:49;8.27;;;4.13;;
74904;SDS011;63465;50.862;6.220;2023-09-30T12:35:14;10.00;;;3.90;;
74904;SDS011;63465;50.862;6.220;2023-09-30T12:37:39;8.40;;;4.40;;
74904;SDS011;63465;50.862;6.220;2023-09-30T12:40:06;8.10;;;3.67;;
74904;SDS011;63465;50.862;6.220;2023-09-30T12:42:32;10.30;;;4.23;;
74904;SDS011;63465;50.862;6.220;2023-09-30T12:45:00;8.03;;;3.97;;
74904;SDS011;63465;50.862;6.220;2023-09-30T12:47:25;6.73;;;4.20;;
74904;SDS011;63465;50.862;6.220;2023-09-30T12:49:51;8.67;;;4.70;;
74904;SDS011;63465;50.862;6.220;2023-09-30T12:52:17;9.93;;;4.53;;
74904;SDS011;63465;50.862;6.220;2023-09-30T12:54:42;9.70;;;5.20;;
74904;SDS011;63465;50.862;6.220;2023-09-30T12:57:07;6.90;;;4.30;;
74904;SDS011;63465;50.862;6.220;2023-09-30T12:59:33;7.90;;;4.80;;
74904;SDS011;63465;50.862;6.220;2023-09-30T13:01:59;12.13;;;4.30;;
74904;SDS011;63465;50.862;6.220;2023-09-30T13:04:24;8.00;;;4.47;;
74904;SDS011;63465;50.862;6.220;2023-09-30T13:06:51;12.30;;;4.67;;
74904;SDS011;63465;50.862;6.220;2023-09-30T13:09:17;9.40;;;4.50;;
74904;SDS011;63465;50.862;6.220;2023-09-30T13:11:44;9.00;;;4.17;;
74904;SDS011;63465;50.862;6.220;2023-09-30T13:14:10;6.07;;;3.90;;
74904;SDS011;63465;50.862;6.220;2023-09-30T13:16:36;7.60;;;3.63;;
74904;SDS011;63465;50.862;6.220;2023-09-30T13:19:01;12.33;;;4.00;;
74904;SDS011;63465;50.862;6.220;2023-09-30T13:21:27;8.13;;;4.10;;
74904;SDS011;63465;50.862;6.220;2023-09-30T13:23:52;8.60;;;4.60;;
74904;SDS011;63465;50.862;6.220;2023-09-30T13:26:17;3.77;;;3.20;;
74904;SDS011;63465;50.862;6.220;2023-09-30T13:28:44;7.37;;;4.03;;
74904;SDS011;63465;50.862;6.220;2023-09-30T13:31:09;6.20;;;3.90;;
74904;SDS011;63465;50.862;6.220;2023-09-30T13:33:35;6.87;;;3.60;;
74904;SDS011;63465;50.862;6.220;2023-09-30T13:36:00;5.40;;;3.80;;
74904;SDS011;63465;50.862;6.220;2023-09-30T13:38:27;8.50;;;3.73;;
74904;SDS011;63465;50.862;6.220;2023-09-30T13:40:52;7.07;;;3.83;;
74904;SDS011;63465;50.862;6.220;2023-09-30T13:43:17;11.50;;;4.07;;
74904;SDS011;63465;50.862;6.220;2023-09-30T13:45:43;12.60;;;8.03;;
74904;SDS011;63465;50.862;6.220;2023-09-30T13:48:08;6.97;;;3.40;;
74904;SDS011;63465;50.862;6.220;2023-09-30T13:50:34;7.80;;;3.90;;
74904;SDS011;63465;50.862;6.220;2023-09-30T13:52:59;5.73;;;3.70;;
74904;SDS011;63465;50.862;6.220;2023-09-30T13:55:26;7.67;;;3.90;;
74904;SDS011;63465;50.862;6.220;2023-09-30T13:57:51;5.87;;;3.67;;
74904;SDS011;63465;50.862;6.220;2023-09-30T14:00:16;12.57;;;7.03;;
74904;SDS011;63465;50.862;6.220;2023-09-30T14:02:42;4.87;;;3.70;;
74904;SDS011;63465;50.862;6.220;2023-09-30T14:05:08;6.07;;;3.57;;
74904;SDS011;63465;50.862;6.220;2023-09-30T14:07:37;6.37;;;4.17;;
74904;SDS011;63465;50.862;6.220;2023-09-30T14:10:03;12.90;;;3.60;;
74904;SDS011;63465;50.862;6.220;2023-09-30T14:12:29;7.00;;;3.93;;
74904;SDS011;63465;50.862;6.220;2023-09-30T14:14:54;6.53;;;4.37;;
74904;SDS011;63465;50.862;6.220;2023-09-30T14:17:20;6.00;;;3.70;;
74904;SDS011;63465;50.862;6.220;2023-09-30T14:19:45;7.23;;;3.83;;
74904;SDS011;63465;50.862;6.220;2023-09-30T14:22:10;5.33;;;4.20;;
74904;SDS011;63465;50.862;6.220;2023-09-30T14:24:36;8.40;;;4.30;;
74904;SDS011;63465;50.862;6.220;2023-09-30T14:27:02;11.33;;;3.80;;
74904;SDS011;63465;50.862;6.220;2023-09-30T14:29:28;5.40;;;4.20;;
74904;SDS011;63465;50.862;6.220;2023-09-30T14:31:54;11.33;;;3.80;;
74904;SDS011;63465;50.862;6.220;2023-09-30T14:34:21;8.57;;;3.93;;
74904;SDS011;63465;50.862;6.220;2023-09-30T14:36:47;6.90;;;3.90;;
74904;SDS011;63465;50.862;6.220;2023-09-30T14:39:13;9.30;;;3.77;;
74904;SDS011;63465;50.862;6.220;2023-09-30T14:41:38;10.57;;;4.17;;
74904;SDS011;63465;50.862;6.220;2023-09-30T14:44:03;9.50;;;3.93;;
74904;SDS011;63465;50.862;6.220;2023-09-30T14:46:32;8.80;;;4.43;;
74904;SDS011;63465;50.862;6.220;2023-09-30T14:49:00;8.47;;;4.20;;
74904;SDS011;63465;50.862;6.220;2023-09-30T14:51:26;6.83;;;4.30;;
74904;SDS011;63465;50.862;6.220;2023-09-30T14:53:51;7.43;;;4.30;;